W.w. Crum — WDB7252 — position and weather

sailwx.info

Track history (hours):
 
Tides and Currents Weather Stations Pressure Air Temp Water Temp Dewpoint Dewpoint Depression Visibility Wind Speed Wind Dir Waves Ship Positions

W.w. Crum

Owner: Magnolia Marine Transport Co, Vicksburg, MS. More information available from US FCC via Universal Licensing System and Coast Guard Vessel Documentation Center.

Last reported at 2018-Feb-19 22:36 UTC. Time now 2018-Feb-20 17:08 UTC.
Position N 32°07' W 091°06'.

Length 40 m; draft 2.7 m.

Type: Towing. MMSI: 366939330.

Date/timePositionNaut miles runAvg speedWind from/ knotsBaromVisibWave heightAir tempDewpointWater temp
2018-Feb-19 22:36N 32°07' W 091°06'1 8.3
2018-Feb-19 22:28N 32°08' W 091°06'4 8.1
2018-Feb-19 21:57N 32°07' W 091°02'4 8.6
2018-Feb-19 21:28N 32°11' W 090°60'4 9.4
2018-Feb-19 21:00N 32°15' W 090°59'4 8.6
2018-Feb-19 20:30N 32°18' W 090°55'0 0.1
2018-Feb-19 20:00N 32°18' W 090°55'0 0.1
2018-Feb-19 19:30N 32°18' W 090°55'0 0.2
2018-Feb-19 19:00N 32°18' W 090°55'0 0.0
2018-Feb-19 18:30N 32°18' W 090°55'0 0.1
2018-Feb-19 18:01N 32°18' W 090°55'0 0.4
2018-Feb-19 17:30N 32°18' W 090°55'3 5.2
2018-Feb-19 17:00N 32°20' W 090°54'3 5.5
2018-Feb-19 16:31N 32°23' W 090°53'1 1.7
2018-Feb-19 16:00N 32°23' W 090°54'0 0.1
2018-Feb-19 15:31N 32°23' W 090°54'1 1.6
2018-Feb-19 15:01N 32°23' W 090°53'0 0.5
2018-Feb-19 14:30N 32°23' W 090°53'1 2.3
2018-Feb-19 14:01N 32°23' W 090°54'0 0.0
2018-Feb-19 13:30N 32°23' W 090°54'0 0.0
2018-Feb-19 13:00N 32°23' W 090°54'0 0.0
2018-Feb-19 12:30N 32°23' W 090°54'0 0.0
2018-Feb-19 12:00N 32°23' W 090°54'0 0.0
2018-Feb-19 11:30N 32°23' W 090°54'0 0.0
2018-Feb-19 11:00N 32°23' W 090°54'0 0.0
2018-Feb-19 10:31N 32°23' W 090°54'0 0.0
2018-Feb-19 10:01N 32°23' W 090°54'0 0.0
2018-Feb-19 09:30N 32°23' W 090°54'0 0.0
2018-Feb-19 09:00N 32°23' W 090°54'0 0.0
2018-Feb-19 08:30N 32°23' W 090°54'0 0.0
2018-Feb-19 08:01N 32°23' W 090°54'0 0.0
2018-Feb-19 07:30N 32°23' W 090°54'0 0.0
2018-Feb-19 07:00N 32°23' W 090°54'0 0.0
2018-Feb-19 06:30N 32°23' W 090°54'0 0.0
2018-Feb-19 05:59N 32°23' W 090°54'0 0.0
2018-Feb-19 05:30N 32°23' W 090°54'0 0.0
2018-Feb-19 05:00N 32°23' W 090°54'0 0.0
2018-Feb-19 04:30N 32°23' W 090°54'0 0.0
2018-Feb-19 04:00N 32°23' W 090°54'0 0.0
2018-Feb-19 03:30N 32°23' W 090°54'0 0.0
2018-Feb-19 03:00N 32°23' W 090°54'0 0.0
2018-Feb-19 02:30N 32°23' W 090°54'0 0.0
2018-Feb-19 02:01N 32°23' W 090°54'0 0.0
2018-Feb-19 01:31N 32°23' W 090°54'0 0.1
2018-Feb-19 01:00N 32°23' W 090°54'1 1.2
2018-Feb-19 00:31N 32°23' W 090°53'1 1.8
2018-Feb-19 00:01N 32°23' W 090°53'0 0.6
2018-Feb-18 23:30N 32°22' W 090°53'2 3.2
2018-Feb-18 23:01N 32°21' W 090°53'2 3.9
2018-Feb-18 22:31N 32°19' W 090°54'2 4.3
2018-Feb-18 22:00N 32°18' W 090°56'2 4.1
2018-Feb-18 21:30N 32°16' W 090°58'2 4.4
2018-Feb-18 21:01N 32°14' W 090°59'2 4.3
2018-Feb-18 20:31N 32°12' W 090°59'2 4.0
2018-Feb-18 20:00N 32°10' W 090°60'2 4.1
2018-Feb-18 19:31N 32°08' W 091°00'2 3.6
2018-Feb-18 19:00N 32°07' W 091°02'2 3.7
2018-Feb-18 18:22N 32°08' W 091°05'0 0.3
2018-Feb-18 17:50N 32°08' W 091°05'0 0.3
2018-Feb-18 17:29N 32°08' W 091°05'0 0.2
2018-Feb-18 16:54N 32°08' W 091°05'0 0.1
2018-Feb-18 16:27N 32°08' W 091°05'1 2.7
2018-Feb-18 16:01N 32°08' W 091°06'5 2.2
2018-Feb-18 13:41N 32°03' W 091°03'1 4.0
2018-Feb-18 13:28N 32°02' W 091°04'2 3.3
2018-Feb-18 12:57N 32°01' W 091°05'  
2018-Feb-13 16:58N 32°07' W 091°06'3 5.8
2018-Feb-13 16:30N 32°07' W 091°03'4 7.4
2018-Feb-13 16:00N 32°10' W 091°00'510.9
2018-Feb-13 15:30N 32°15' W 090°59'4 7.9
2018-Feb-13 15:00N 32°18' W 090°55'0 0.1
2018-Feb-13 14:29N 32°18' W 090°55'0 0.0
2018-Feb-13 14:00N 32°18' W 090°55'0 0.0
2018-Feb-13 13:30N 32°18' W 090°55'1 2.5
2018-Feb-13 13:00N 32°19' W 090°54'4 7.3
2018-Feb-13 12:30N 32°22' W 090°53'1 1.0
2018-Feb-13 12:00N 32°23' W 090°53'0 0.1
2018-Feb-13 11:30N 32°23' W 090°53'1 2.4
2018-Feb-13 11:00N 32°23' W 090°54'0 0.1
2018-Feb-13 10:30N 32°23' W 090°54'0 0.0
2018-Feb-13 10:00N 32°23' W 090°54'0 0.0
2018-Feb-13 09:30N 32°23' W 090°54'0 0.0
2018-Feb-13 09:00N 32°23' W 090°54'0 0.0
2018-Feb-13 08:30N 32°23' W 090°54'0 0.0
2018-Feb-13 08:00N 32°23' W 090°54'0 0.0
2018-Feb-13 07:30N 32°23' W 090°54'0 0.0
2018-Feb-13 07:00N 32°23' W 090°54'0 0.0
2018-Feb-13 06:30N 32°23' W 090°54'0 0.0
2018-Feb-13 06:00N 32°23' W 090°54'0 0.0
2018-Feb-13 05:30N 32°23' W 090°54'0 0.0
2018-Feb-13 05:00N 32°23' W 090°54'0 0.0
2018-Feb-13 04:30N 32°23' W 090°54'0 0.0
2018-Feb-13 04:00N 32°23' W 090°54'1 2.1
2018-Feb-13 03:30N 32°23' W 090°53'2 3.1
2018-Feb-13 03:00N 32°23' W 090°55'0 0.3
2018-Feb-13 02:30N 32°23' W 090°55'0 0.0
2018-Feb-13 02:00N 32°23' W 090°55'0 0.0
2018-Feb-13 01:30N 32°23' W 090°55'0 0.0
2018-Feb-13 01:00N 32°23' W 090°55'0 0.0
2018-Feb-13 00:30N 32°23' W 090°55'0 0.0
2018-Feb-13 00:00N 32°23' W 090°55'0 0.0
2018-Feb-12 23:30N 32°23' W 090°55'0 0.0
2018-Feb-12 23:00N 32°23' W 090°55'0 0.0
2018-Feb-12 22:30N 32°23' W 090°55'0 0.8
2018-Feb-12 22:00N 32°23' W 090°54'1 2.7
2018-Feb-12 21:30N 32°23' W 090°53'0 0.0
2018-Feb-12 21:00N 32°23' W 090°53'0 0.0
2018-Feb-12 20:30N 32°23' W 090°53'0 0.0
2018-Feb-12 20:00N 32°23' W 090°53'0 0.0
2018-Feb-12 19:30N 32°23' W 090°53'0 0.0
2018-Feb-12 19:00N 32°23' W 090°53'1 1.6
2018-Feb-12 18:30N 32°22' W 090°53'1 2.5
2018-Feb-12 18:00N 32°23' W 090°55'0 0.0
2018-Feb-12 17:30N 32°23' W 090°55'0 0.0
2018-Feb-12 17:00N 32°23' W 090°55'0 0.0
2018-Feb-12 16:30N 32°23' W 090°55'0 0.0
2018-Feb-12 16:00N 32°23' W 090°55'0 0.0
2018-Feb-12 15:30N 32°23' W 090°55'0 0.0
2018-Feb-12 15:00N 32°23' W 090°55'0 0.0
2018-Feb-12 14:30N 32°23' W 090°55'0 0.0
2018-Feb-12 14:00N 32°23' W 090°55'0 0.0
2018-Feb-12 13:30N 32°23' W 090°55'0 0.0
2018-Feb-12 13:00N 32°23' W 090°55'0 0.0
2018-Feb-12 12:30N 32°23' W 090°55'0 0.0
2018-Feb-12 12:00N 32°23' W 090°55'0 0.2
2018-Feb-12 11:28N 32°23' W 090°55'0 0.0
2018-Feb-12 10:57N 32°23' W 090°55'0 0.0
2018-Feb-12 10:27N 32°23' W 090°55'0 0.0
2018-Feb-12 09:58N 32°23' W 090°55'0 0.0
2018-Feb-12 09:30N 32°23' W 090°55'0 0.0
2018-Feb-12 08:59N 32°23' W 090°55'0 0.0
2018-Feb-12 08:30N 32°23' W 090°55'0 0.0
2018-Feb-12 07:59N 32°23' W 090°55'0 0.0
2018-Feb-12 07:30N 32°23' W 090°55'0 0.0
2018-Feb-12 07:00N 32°23' W 090°55'0 0.0
2018-Feb-12 06:30N 32°23' W 090°55'0 0.0
2018-Feb-12 05:59N 32°23' W 090°55'0 0.0
2018-Feb-12 05:27N 32°23' W 090°55'0 0.0
2018-Feb-12 04:59N 32°23' W 090°55'0 0.0
2018-Feb-12 04:29N 32°23' W 090°55'0 0.0
2018-Feb-12 03:58N 32°23' W 090°55'0 0.0
2018-Feb-12 03:29N 32°23' W 090°55'0 0.0
2018-Feb-12 03:00N 32°23' W 090°55'0 0.0
2018-Feb-12 02:30N 32°23' W 090°55'0 0.0
2018-Feb-12 02:00N 32°23' W 090°55'0 0.0
2018-Feb-12 01:30N 32°23' W 090°55'0 0.0
2018-Feb-12 01:00N 32°23' W 090°55'0 0.0
2018-Feb-12 00:28N 32°23' W 090°55'0 0.0
2018-Feb-12 00:00N 32°23' W 090°55'0 0.0
2018-Feb-11 23:30N 32°23' W 090°55'0 0.0
2018-Feb-11 22:59N 32°23' W 090°55'0 0.0
2018-Feb-11 22:29N 32°23' W 090°55'0 0.0
2018-Feb-11 21:58N 32°23' W 090°55'0 0.0
2018-Feb-11 21:30N 32°23' W 090°55'0 0.0
2018-Feb-11 20:59N 32°23' W 090°55'0 0.0
2018-Feb-11 20:30N 32°23' W 090°55'0 0.0
2018-Feb-11 20:00N 32°23' W 090°55'0 0.0
2018-Feb-11 19:22N 32°23' W 090°55'0 0.0
2018-Feb-11 19:00N 32°23' W 090°55'0 0.0
2018-Feb-11 18:30N 32°23' W 090°55'0 0.0
2018-Feb-11 18:00N 32°23' W 090°55'0 0.0
2018-Feb-11 17:30N 32°23' W 090°55'0 0.0
2018-Feb-11 16:59N 32°23' W 090°55'0 0.0
2018-Feb-11 16:30N 32°23' W 090°55'0 0.0
2018-Feb-11 16:00N 32°23' W 090°55'0 0.0
2018-Feb-11 15:30N 32°23' W 090°55'0 0.0
2018-Feb-11 15:00N 32°23' W 090°55'1 1.6
2018-Feb-11 14:30N 32°23' W 090°54'1 1.9
2018-Feb-11 14:00N 32°23' W 090°53'0 0.0
2018-Feb-11 13:30N 32°23' W 090°53'0 0.0
2018-Feb-11 13:00N 32°23' W 090°53'0 0.0
2018-Feb-11 12:30N 32°23' W 090°53'0 0.0
2018-Feb-11 12:00N 32°23' W 090°53'2 3.1
2018-Feb-11 11:30N 32°23' W 090°55'0 0.0
2018-Feb-11 11:00N 32°23' W 090°55'0 0.0
2018-Feb-11 10:30N 32°23' W 090°55'0 0.0
2018-Feb-11 10:00N 32°23' W 090°55'0 0.0
2018-Feb-11 09:30N 32°23' W 090°55'0 0.0
2018-Feb-11 09:00N 32°23' W 090°55'0 0.0
2018-Feb-11 08:30N 32°23' W 090°55'0 0.0
2018-Feb-11 08:00N 32°23' W 090°55'1 1.6
2018-Feb-11 07:30N 32°23' W 090°54'1 2.5
2018-Feb-11 07:00N 32°22' W 090°53'2 4.0
2018-Feb-11 06:30N 32°20' W 090°54'2 4.0
2018-Feb-11 06:00N 32°18' W 090°55'2 4.4
2018-Feb-11 05:30N 32°17' W 090°57'2 4.3
2018-Feb-11 05:00N 32°15' W 090°59'2 4.0
2018-Feb-11 04:30N 32°13' W 090°59'2 4.6
2018-Feb-11 04:00N 32°11' W 090°60'2 4.2
2018-Feb-11 03:29N 32°09' W 091°00'2 3.9
2018-Feb-11 02:59N 32°07' W 091°02'3 4.4
2018-Feb-11 02:15N 32°08' W 091°05'1 4.6
2018-Feb-11 02:00N 32°07' W 091°06'5 4.7
2018-Feb-11 00:59N 32°03' W 091°03'  
Track history (hours):
 
Tides and Currents Weather Stations Pressure Air Temp Water Temp Dewpoint Dewpoint Depression Visibility Wind Speed Wind Dir Waves Ship Positions

W.w. Crum

Owner: Magnolia Marine Transport Co, Vicksburg, MS. More information available from US FCC via Universal Licensing System and Coast Guard Vessel Documentation Center.

Last reported at 2018-Feb-19 22:36 UTC. Time now 2018-Feb-20 17:08 UTC.
Position N 32°07' W 091°06'.

Length 40 m; draft 2.7 m.

Type: Towing. MMSI: 366939330.

Date/timePositionNaut miles runAvg speedWind from/ knotsBaromVisibWave heightAir tempDewpointWater temp
2018-Feb-19 22:36N 32°07' W 091°06'1 8.3
2018-Feb-19 22:28N 32°08' W 091°06'4 8.1
2018-Feb-19 21:57N 32°07' W 091°02'4 8.6
2018-Feb-19 21:28N 32°11' W 090°60'4 9.4
2018-Feb-19 21:00N 32°15' W 090°59'4 8.6
2018-Feb-19 20:30N 32°18' W 090°55'0 0.1
2018-Feb-19 20:00N 32°18' W 090°55'0 0.1
2018-Feb-19 19:30N 32°18' W 090°55'0 0.2
2018-Feb-19 19:00N 32°18' W 090°55'0 0.0
2018-Feb-19 18:30N 32°18' W 090°55'0 0.1
2018-Feb-19 18:01N 32°18' W 090°55'0 0.4
2018-Feb-19 17:30N 32°18' W 090°55'3 5.2
2018-Feb-19 17:00N 32°20' W 090°54'3 5.5
2018-Feb-19 16:31N 32°23' W 090°53'1 1.7
2018-Feb-19 16:00N 32°23' W 090°54'0 0.1
2018-Feb-19 15:31N 32°23' W 090°54'1 1.6
2018-Feb-19 15:01N 32°23' W 090°53'0 0.5
2018-Feb-19 14:30N 32°23' W 090°53'1 2.3
2018-Feb-19 14:01N 32°23' W 090°54'0 0.0
2018-Feb-19 13:30N 32°23' W 090°54'0 0.0
2018-Feb-19 13:00N 32°23' W 090°54'0 0.0
2018-Feb-19 12:30N 32°23' W 090°54'0 0.0
2018-Feb-19 12:00N 32°23' W 090°54'0 0.0
2018-Feb-19 11:30N 32°23' W 090°54'0 0.0
2018-Feb-19 11:00N 32°23' W 090°54'0 0.0
2018-Feb-19 10:31N 32°23' W 090°54'0 0.0
2018-Feb-19 10:01N 32°23' W 090°54'0 0.0
2018-Feb-19 09:30N 32°23' W 090°54'0 0.0
2018-Feb-19 09:00N 32°23' W 090°54'0 0.0
2018-Feb-19 08:30N 32°23' W 090°54'0 0.0
2018-Feb-19 08:01N 32°23' W 090°54'0 0.0
2018-Feb-19 07:30N 32°23' W 090°54'0 0.0
2018-Feb-19 07:00N 32°23' W 090°54'0 0.0
2018-Feb-19 06:30N 32°23' W 090°54'0 0.0
2018-Feb-19 05:59N 32°23' W 090°54'0 0.0
2018-Feb-19 05:30N 32°23' W 090°54'0 0.0
2018-Feb-19 05:00N 32°23' W 090°54'0 0.0
2018-Feb-19 04:30N 32°23' W 090°54'0 0.0
2018-Feb-19 04:00N 32°23' W 090°54'0 0.0
2018-Feb-19 03:30N 32°23' W 090°54'0 0.0
2018-Feb-19 03:00N 32°23' W 090°54'0 0.0
2018-Feb-19 02:30N 32°23' W 090°54'0 0.0
2018-Feb-19 02:01N 32°23' W 090°54'0 0.0
2018-Feb-19 01:31N 32°23' W 090°54'0 0.1
2018-Feb-19 01:00N 32°23' W 090°54'1 1.2
2018-Feb-19 00:31N 32°23' W 090°53'1 1.8
2018-Feb-19 00:01N 32°23' W 090°53'0 0.6
2018-Feb-18 23:30N 32°22' W 090°53'2 3.2
2018-Feb-18 23:01N 32°21' W 090°53'2 3.9
2018-Feb-18 22:31N 32°19' W 090°54'2 4.3
2018-Feb-18 22:00N 32°18' W 090°56'2 4.1
2018-Feb-18 21:30N 32°16' W 090°58'2 4.4
2018-Feb-18 21:01N 32°14' W 090°59'2 4.3
2018-Feb-18 20:31N 32°12' W 090°59'2 4.0
2018-Feb-18 20:00N 32°10' W 090°60'2 4.1
2018-Feb-18 19:31N 32°08' W 091°00'2 3.6
2018-Feb-18 19:00N 32°07' W 091°02'2 3.7
2018-Feb-18 18:22N 32°08' W 091°05'0 0.3
2018-Feb-18 17:50N 32°08' W 091°05'0 0.3
2018-Feb-18 17:29N 32°08' W 091°05'0 0.2
2018-Feb-18 16:54N 32°08' W 091°05'0 0.1
2018-Feb-18 16:27N 32°08' W 091°05'1 2.7
2018-Feb-18 16:01N 32°08' W 091°06'5 2.2
2018-Feb-18 13:41N 32°03' W 091°03'1 4.0
2018-Feb-18 13:28N 32°02' W 091°04'2 3.3
2018-Feb-18 12:57N 32°01' W 091°05'  
2018-Feb-13 16:58N 32°07' W 091°06'3 5.8
2018-Feb-13 16:30N 32°07' W 091°03'4 7.4
2018-Feb-13 16:00N 32°10' W 091°00'510.9
2018-Feb-13 15:30N 32°15' W 090°59'4 7.9
2018-Feb-13 15:00N 32°18' W 090°55'0 0.1
2018-Feb-13 14:29N 32°18' W 090°55'0 0.0
2018-Feb-13 14:00N 32°18' W 090°55'0 0.0
2018-Feb-13 13:30N 32°18' W 090°55'1 2.5
2018-Feb-13 13:00N 32°19' W 090°54'4 7.3
2018-Feb-13 12:30N 32°22' W 090°53'1 1.0
2018-Feb-13 12:00N 32°23' W 090°53'0 0.1
2018-Feb-13 11:30N 32°23' W 090°53'1 2.4
2018-Feb-13 11:00N 32°23' W 090°54'0 0.1
2018-Feb-13 10:30N 32°23' W 090°54'0 0.0
2018-Feb-13 10:00N 32°23' W 090°54'0 0.0
2018-Feb-13 09:30N 32°23' W 090°54'0 0.0
2018-Feb-13 09:00N 32°23' W 090°54'0 0.0
2018-Feb-13 08:30N 32°23' W 090°54'0 0.0
2018-Feb-13 08:00N 32°23' W 090°54'0 0.0
2018-Feb-13 07:30N 32°23' W 090°54'0 0.0
2018-Feb-13 07:00N 32°23' W 090°54'0 0.0
2018-Feb-13 06:30N 32°23' W 090°54'0 0.0
2018-Feb-13 06:00N 32°23' W 090°54'0 0.0
2018-Feb-13 05:30N 32°23' W 090°54'0 0.0
2018-Feb-13 05:00N 32°23' W 090°54'0 0.0
2018-Feb-13 04:30N 32°23' W 090°54'0 0.0
2018-Feb-13 04:00N 32°23' W 090°54'1 2.1
2018-Feb-13 03:30N 32°23' W 090°53'2 3.1
2018-Feb-13 03:00N 32°23' W 090°55'0 0.3
2018-Feb-13 02:30N 32°23' W 090°55'0 0.0
2018-Feb-13 02:00N 32°23' W 090°55'0 0.0
2018-Feb-13 01:30N 32°23' W 090°55'0 0.0
2018-Feb-13 01:00N 32°23' W 090°55'0 0.0
2018-Feb-13 00:30N 32°23' W 090°55'0 0.0
2018-Feb-13 00:00N 32°23' W 090°55'0 0.0
2018-Feb-12 23:30N 32°23' W 090°55'0 0.0
2018-Feb-12 23:00N 32°23' W 090°55'0 0.0
2018-Feb-12 22:30N 32°23' W 090°55'0 0.8
2018-Feb-12 22:00N 32°23' W 090°54'1 2.7
2018-Feb-12 21:30N 32°23' W 090°53'0 0.0
2018-Feb-12 21:00N 32°23' W 090°53'0 0.0
2018-Feb-12 20:30N 32°23' W 090°53'0 0.0
2018-Feb-12 20:00N 32°23' W 090°53'0 0.0
2018-Feb-12 19:30N 32°23' W 090°53'0 0.0
2018-Feb-12 19:00N 32°23' W 090°53'1 1.6
2018-Feb-12 18:30N 32°22' W 090°53'1 2.5
2018-Feb-12 18:00N 32°23' W 090°55'0 0.0
2018-Feb-12 17:30N 32°23' W 090°55'0 0.0
2018-Feb-12 17:00N 32°23' W 090°55'0 0.0
2018-Feb-12 16:30N 32°23' W 090°55'0 0.0
2018-Feb-12 16:00N 32°23' W 090°55'0 0.0
2018-Feb-12 15:30N 32°23' W 090°55'0 0.0
2018-Feb-12 15:00N 32°23' W 090°55'0 0.0
2018-Feb-12 14:30N 32°23' W 090°55'0 0.0
2018-Feb-12 14:00N 32°23' W 090°55'0 0.0
2018-Feb-12 13:30N 32°23' W 090°55'0 0.0
2018-Feb-12 13:00N 32°23' W 090°55'0 0.0
2018-Feb-12 12:30N 32°23' W 090°55'0 0.0
2018-Feb-12 12:00N 32°23' W 090°55'0 0.2
2018-Feb-12 11:28N 32°23' W 090°55'0 0.0
2018-Feb-12 10:57N 32°23' W 090°55'0 0.0
2018-Feb-12 10:27N 32°23' W 090°55'0 0.0
2018-Feb-12 09:58N 32°23' W 090°55'0 0.0
2018-Feb-12 09:30N 32°23' W 090°55'0 0.0
2018-Feb-12 08:59N 32°23' W 090°55'0 0.0
2018-Feb-12 08:30N 32°23' W 090°55'0 0.0
2018-Feb-12 07:59N 32°23' W 090°55'0 0.0
2018-Feb-12 07:30N 32°23' W 090°55'0 0.0
2018-Feb-12 07:00N 32°23' W 090°55'0 0.0
2018-Feb-12 06:30N 32°23' W 090°55'0 0.0
2018-Feb-12 05:59N 32°23' W 090°55'0 0.0
2018-Feb-12 05:27N 32°23' W 090°55'0 0.0
2018-Feb-12 04:59N 32°23' W 090°55'0 0.0
2018-Feb-12 04:29N 32°23' W 090°55'0 0.0
2018-Feb-12 03:58N 32°23' W 090°55'0 0.0
2018-Feb-12 03:29N 32°23' W 090°55'0 0.0
2018-Feb-12 03:00N 32°23' W 090°55'0 0.0
2018-Feb-12 02:30N 32°23' W 090°55'0 0.0
2018-Feb-12 02:00N 32°23' W 090°55'0 0.0
2018-Feb-12 01:30N 32°23' W 090°55'0 0.0
2018-Feb-12 01:00N 32°23' W 090°55'0 0.0
2018-Feb-12 00:28N 32°23' W 090°55'0 0.0
2018-Feb-12 00:00N 32°23' W 090°55'0 0.0
2018-Feb-11 23:30N 32°23' W 090°55'0 0.0
2018-Feb-11 22:59N 32°23' W 090°55'0 0.0
2018-Feb-11 22:29N 32°23' W 090°55'0 0.0
2018-Feb-11 21:58N 32°23' W 090°55'0 0.0
2018-Feb-11 21:30N 32°23' W 090°55'0 0.0
2018-Feb-11 20:59N 32°23' W 090°55'0 0.0
2018-Feb-11 20:30N 32°23' W 090°55'0 0.0
2018-Feb-11 20:00N 32°23' W 090°55'0 0.0
2018-Feb-11 19:22N 32°23' W 090°55'0 0.0
2018-Feb-11 19:00N 32°23' W 090°55'0 0.0
2018-Feb-11 18:30N 32°23' W 090°55'0 0.0
2018-Feb-11 18:00N 32°23' W 090°55'0 0.0
2018-Feb-11 17:30N 32°23' W 090°55'0 0.0
2018-Feb-11 16:59N 32°23' W 090°55'0 0.0
2018-Feb-11 16:30N 32°23' W 090°55'0 0.0
2018-Feb-11 16:00N 32°23' W 090°55'0 0.0
2018-Feb-11 15:30N 32°23' W 090°55'0 0.0
2018-Feb-11 15:00N 32°23' W 090°55'1 1.6
2018-Feb-11 14:30N 32°23' W 090°54'1 1.9
2018-Feb-11 14:00N 32°23' W 090°53'0 0.0
2018-Feb-11 13:30N 32°23' W 090°53'0 0.0
2018-Feb-11 13:00N 32°23' W 090°53'0 0.0
2018-Feb-11 12:30N 32°23' W 090°53'0 0.0
2018-Feb-11 12:00N 32°23' W 090°53'2 3.1
2018-Feb-11 11:30N 32°23' W 090°55'0 0.0
2018-Feb-11 11:00N 32°23' W 090°55'0 0.0
2018-Feb-11 10:30N 32°23' W 090°55'0 0.0
2018-Feb-11 10:00N 32°23' W 090°55'0 0.0
2018-Feb-11 09:30N 32°23' W 090°55'0 0.0
2018-Feb-11 09:00N 32°23' W 090°55'0 0.0
2018-Feb-11 08:30N 32°23' W 090°55'0 0.0
2018-Feb-11 08:00N 32°23' W 090°55'1 1.6
2018-Feb-11 07:30N 32°23' W 090°54'1 2.5
2018-Feb-11 07:00N 32°22' W 090°53'2 4.0
2018-Feb-11 06:30N 32°20' W 090°54'2 4.0
2018-Feb-11 06:00N 32°18' W 090°55'2 4.4
2018-Feb-11 05:30N 32°17' W 090°57'2 4.3
2018-Feb-11 05:00N 32°15' W 090°59'2 4.0
2018-Feb-11 04:30N 32°13' W 090°59'2 4.6
2018-Feb-11 04:00N 32°11' W 090°60'2 4.2
2018-Feb-11 03:29N 32°09' W 091°00'2 3.9
2018-Feb-11 02:59N 32°07' W 091°02'3 4.4
2018-Feb-11 02:15N 32°08' W 091°05'1 4.6
2018-Feb-11 02:00N 32°07' W 091°06'5 4.7
2018-Feb-11 00:59N 32°03' W 091°03'  

Dump ship's entire track history